Independence — WDD6659 — position and weather

sailwx.info

Track history (hours):
 
Tides and Currents Weather Stations Pressure Air Temp Water Temp Dewpoint Dewpoint Depression Visibility Wind Speed Wind Dir Waves Ship Positions

Independence

Owner: Sortwell, Inc. DBA AmNav Maritime Services, Oakland, CA. More information available from US FCC via Universal Licensing System and Coast Guard Vessel Documentation Center.

Last reported at 2014-Oct-30 15:33 UTC. Time now 2014-Oct-30 16:02 UTC.
Position N 33°44' W 118°17'.

Length 24 m; draft 4.9 m.

Type: Tug. MMSI: 367175860.

Date/timePositionNaut miles runAvg speedWind from/ knotsBaromVisibWave heightAir tempDewpointWater temp
2014-Oct-30 15:33N 33°44' W 118°17'0 0.0
2014-Oct-30 14:33N 33°44' W 118°17'0 0.0
2014-Oct-30 13:33N 33°44' W 118°17'1 0.7
2014-Oct-30 12:33N 33°44' W 118°17'0 0.3
2014-Oct-30 11:33N 33°44' W 118°17'0 0.5
2014-Oct-30 10:34N 33°44' W 118°17'0 0.0
2014-Oct-30 09:32N 33°44' W 118°17'0 0.0
2014-Oct-30 08:33N 33°44' W 118°17'0 0.0
2014-Oct-30 07:33N 33°44' W 118°17'0 0.0
2014-Oct-30 06:32N 33°44' W 118°17'0 0.0
2014-Oct-30 05:33N 33°44' W 118°17'0 0.0
2014-Oct-30 04:31N 33°44' W 118°17'0 0.0
2014-Oct-30 03:25N 33°44' W 118°17'0 0.0
2014-Oct-30 02:33N 33°44' W 118°17'0 0.0
2014-Oct-30 01:27N 33°44' W 118°17'0 0.0
2014-Oct-29 23:09N 33°44' W 118°17'0 0.0
2014-Oct-29 22:04N 33°44' W 118°17'0 0.1
2014-Oct-29 21:27N 33°44' W 118°16'1 1.3
2014-Oct-29 20:33N 33°45' W 118°16'2 1.6
2014-Oct-29 19:33N 33°43' W 118°16'1 0.5
2014-Oct-29 18:30N 33°44' W 118°17'0 0.0
2014-Oct-29 17:32N 33°44' W 118°17'0 0.0
2014-Oct-29 16:33N 33°44' W 118°17'0 0.0
2014-Oct-29 15:33N 33°44' W 118°17'0 0.0
2014-Oct-29 14:33N 33°44' W 118°17'0 0.0
2014-Oct-29 13:32N 33°44' W 118°17'1 1.3
2014-Oct-29 12:33N 33°45' W 118°16'3 2.5
2014-Oct-29 11:33N 33°43' W 118°15'1 0.9
2014-Oct-29 10:33N 33°44' W 118°14'2 2.3
2014-Oct-29 09:33N 33°44' W 118°16'0 0.0
2014-Oct-29 08:21N 33°44' W 118°16'0 0.2
2014-Oct-29 07:07N 33°44' W 118°17'0 0.0
2014-Oct-29 06:23N 33°44' W 118°17'0 0.0
2014-Oct-29 01:30N 33°44' W 118°17'0 0.0
2014-Oct-28 22:30N 33°44' W 118°17'0 0.0
2014-Oct-28 21:04N 33°44' W 118°17'0 0.0
2014-Oct-28 08:05N 33°44' W 118°17'0 0.0
2014-Oct-28 03:08N 33°44' W 118°17'0 0.0
2014-Oct-28 01:23N 33°44' W 118°17'0 0.0
2014-Oct-28 00:25N 33°44' W 118°17'0 0.0
2014-Oct-27 23:23N 33°44' W 118°17'0 0.0
2014-Oct-27 22:30N 33°44' W 118°17'0 0.0
2014-Oct-27 21:26N 33°44' W 118°17'0 0.0
2014-Oct-27 20:32N 33°44' W 118°17'0 0.0
2014-Oct-27 19:33N 33°44' W 118°17'0 0.0
2014-Oct-27 18:33N 33°44' W 118°17'0 0.0
2014-Oct-27 17:33N 33°44' W 118°17'0 0.0
2014-Oct-27 16:34N 33°44' W 118°17'0 0.0
2014-Oct-27 15:32N 33°44' W 118°17'0 0.0
2014-Oct-27 13:21N 33°44' W 118°17'4 4.9
2014-Oct-27 12:33N 33°44' W 118°12'1 0.9
2014-Oct-27 11:33N 33°44' W 118°12'4 0.4
2014-Oct-27 01:30N 33°44' W 118°17'0 0.0
2014-Oct-27 00:33N 33°44' W 118°17'0 0.0
2014-Oct-26 22:04N 33°44' W 118°17'0 0.0
2014-Oct-26 21:31N 33°44' W 118°17'0 0.0
2014-Oct-26 20:32N 33°44' W 118°17'0 0.0
2014-Oct-26 19:15N 33°44' W 118°17'0 0.0
2014-Oct-26 17:28N 33°44' W 118°17'0 0.0
2014-Oct-26 03:15N 33°44' W 118°17'3 4.9
2014-Oct-26 02:34N 33°46' W 118°13'1 0.7
2014-Oct-26 01:33N 33°46' W 118°13'1 1.5
2014-Oct-26 00:33N 33°45' W 118°13'2 2.3
2014-Oct-25 23:33N 33°44' W 118°11'3 3.0
2014-Oct-25 22:33N 33°43' W 118°14'2 1.9
2014-Oct-25 21:33N 33°44' W 118°17'0 0.0
2014-Oct-25 20:33N 33°44' W 118°17'0 0.0
2014-Oct-25 19:30N 33°44' W 118°17'0 0.0
2014-Oct-25 17:33N 33°44' W 118°17'0 0.0
2014-Oct-25 16:13N 33°44' W 118°17'0 0.0
2014-Oct-25 15:29N 33°44' W 118°17'0 0.0
2014-Oct-25 14:33N 33°44' W 118°17'1 0.9
2014-Oct-25 13:34N 33°45' W 118°16'2 1.7
2014-Oct-25 12:33N 33°43' W 118°16'0 0.3
2014-Oct-25 11:33N 33°43' W 118°16'1 0.5
2014-Oct-25 10:09N 33°44' W 118°17'0 0.0
2014-Oct-25 09:33N 33°44' W 118°17'0 0.0
2014-Oct-25 08:33N 33°44' W 118°17'0 0.0
2014-Oct-25 07:33N 33°44' W 118°17'0 0.0
2014-Oct-25 06:33N 33°44' W 118°17'0 0.0
2014-Oct-25 05:33N 33°44' W 118°17'0 0.0
2014-Oct-25 04:33N 33°44' W 118°17'0 0.0
2014-Oct-25 03:13N 33°44' W 118°17'0 0.0
2014-Oct-25 02:33N 33°44' W 118°17'4 4.0
2014-Oct-25 01:33N 33°44' W 118°12'1 0.7
2014-Oct-25 00:34N 33°44' W 118°11'1 0.8
2014-Oct-24 23:34N 33°44' W 118°11'3 2.8
2014-Oct-24 22:33N 33°43' W 118°14'2 2.2
2014-Oct-24 21:33N 33°44' W 118°17'0 0.0
2014-Oct-24 20:15N 33°44' W 118°17'0 0.0
2014-Oct-24 19:34N 33°44' W 118°17'0 0.0
2014-Oct-24 18:13N 33°44' W 118°17'0 0.0
2014-Oct-24 17:20N 33°44' W 118°17'0 0.0
2014-Oct-24 14:32N 33°44' W 118°17'0 0.0
2014-Oct-24 13:34N 33°44' W 118°17'0 0.0
2014-Oct-24 12:33N 33°44' W 118°17'0 0.0
2014-Oct-24 11:28N 33°44' W 118°17'0 0.0
2014-Oct-24 09:33N 33°44' W 118°17'0 0.0
2014-Oct-24 08:32N 33°44' W 118°17'0 0.0
2014-Oct-24 07:33N 33°44' W 118°17'0 0.0
2014-Oct-24 06:33N 33°44' W 118°17'0 0.0
2014-Oct-24 05:33N 33°44' W 118°17'0 0.0
2014-Oct-24 04:33N 33°44' W 118°17'0 0.0
2014-Oct-24 03:33N 33°44' W 118°17'0 0.0
2014-Oct-24 00:32N 33°44' W 118°17'0 0.0
2014-Oct-23 23:33N 33°44' W 118°17'0 0.0
2014-Oct-23 22:33N 33°44' W 118°17'0 0.0
2014-Oct-23 21:33N 33°44' W 118°17'0 0.0
2014-Oct-23 20:33N 33°44' W 118°17'0 0.0
2014-Oct-23 19:33N 33°44' W 118°17'0 0.0
2014-Oct-23 18:24N 33°44' W 118°17'0 0.0
2014-Oct-23 17:33N 33°44' W 118°17'0 0.0
2014-Oct-23 16:30N 33°44' W 118°17'0 0.0
2014-Oct-23 15:29N 33°44' W 118°17'0 0.0
2014-Oct-23 14:19N 33°44' W 118°17'1 1.9
2014-Oct-23 13:33N 33°44' W 118°15'1 1.2
2014-Oct-23 12:34N 33°43' W 118°15'2 1.8
2014-Oct-23 11:33N 33°44' W 118°17'0 0.0
2014-Oct-23 10:33N 33°44' W 118°17'0 0.0
2014-Oct-23 08:26N 33°44' W 118°17'0 0.0
2014-Oct-23 07:21N 33°44' W 118°17'0 0.0
2014-Oct-23 06:30N 33°44' W 118°17'0 0.0
2014-Oct-23 05:33N 33°44' W 118°17'0 0.0
2014-Oct-23 04:33N 33°44' W 118°17'0 0.0
2014-Oct-23 03:33N 33°44' W 118°17'0 0.0
2014-Oct-23 02:33N 33°44' W 118°17'0 0.0
2014-Oct-23 01:33N 33°44' W 118°17'0 0.0
2014-Oct-23 00:33N 33°44' W 118°17'0 0.0
2014-Oct-22 23:34N 33°44' W 118°17'0 0.0
2014-Oct-22 22:33N 33°44' W 118°17'0 0.0
2014-Oct-22 20:33N 33°44' W 118°17'0 0.0
2014-Oct-22 19:33N 33°44' W 118°17'0 0.0
2014-Oct-22 18:26N 33°44' W 118°17'0 0.0
2014-Oct-22 16:16N 33°44' W 118°17'0 0.0
2014-Oct-22 13:08N 33°44' W 118°17'3 4.7
2014-Oct-22 12:33N 33°46' W 118°15'1 1.5
2014-Oct-22 11:34N 33°45' W 118°13'0 0.3
2014-Oct-22 10:33N 33°45' W 118°13'1 1.0
2014-Oct-22 09:34N 33°44' W 118°14'2 2.3
2014-Oct-22 08:33N 33°44' W 118°16'0 0.3
2014-Oct-22 07:29N 33°44' W 118°16'0 0.0
2014-Oct-22 02:27N 33°44' W 118°17'3 3.2
2014-Oct-22 01:33N 33°44' W 118°13'1 0.7
2014-Oct-22 00:33N 33°44' W 118°12'3 3.5
2014-Oct-21 23:33N 33°44' W 118°17'0 0.0
2014-Oct-21 22:32N 33°44' W 118°17'0 0.0
2014-Oct-21 21:33N 33°44' W 118°17'0 0.0
2014-Oct-21 20:33N 33°44' W 118°17'0 0.0
2014-Oct-21 19:34N 33°44' W 118°17'0 0.0
2014-Oct-21 18:33N 33°44' W 118°17'0 0.0
2014-Oct-21 17:30N 33°44' W 118°17'0 0.0
2014-Oct-21 16:32N 33°44' W 118°17'0 0.1
2014-Oct-21 15:32N 33°44' W 118°17'0 0.0
2014-Oct-21 14:33N 33°44' W 118°17'0 0.0
2014-Oct-21 13:33N 33°44' W 118°17'0 0.0
2014-Oct-21 12:34N 33°44' W 118°17'1 0.7
2014-Oct-21 11:26N 33°43' W 118°16'1 1.3
2014-Oct-21 10:31N 33°44' W 118°15'1 0.6
2014-Oct-21 08:24N 33°44' W 118°17'1 0.1
2014-Oct-21 01:33N 33°45' W 118°16'1 0.6
2014-Oct-20 23:23N 33°44' W 118°16'  
Track history (hours):
 
Tides and Currents Weather Stations Pressure Air Temp Water Temp Dewpoint Dewpoint Depression Visibility Wind Speed Wind Dir Waves Ship Positions

Independence

Owner: Sortwell, Inc. DBA AmNav Maritime Services, Oakland, CA. More information available from US FCC via Universal Licensing System and Coast Guard Vessel Documentation Center.

Last reported at 2014-Oct-30 15:33 UTC. Time now 2014-Oct-30 16:02 UTC.
Position N 33°44' W 118°17'.

Length 24 m; draft 4.9 m.

Type: Tug. MMSI: 367175860.

Date/timePositionNaut miles runAvg speedWind from/ knotsBaromVisibWave heightAir tempDewpointWater temp
2014-Oct-30 15:33N 33°44' W 118°17'0 0.0
2014-Oct-30 14:33N 33°44' W 118°17'0 0.0
2014-Oct-30 13:33N 33°44' W 118°17'1 0.7
2014-Oct-30 12:33N 33°44' W 118°17'0 0.3
2014-Oct-30 11:33N 33°44' W 118°17'0 0.5
2014-Oct-30 10:34N 33°44' W 118°17'0 0.0
2014-Oct-30 09:32N 33°44' W 118°17'0 0.0
2014-Oct-30 08:33N 33°44' W 118°17'0 0.0
2014-Oct-30 07:33N 33°44' W 118°17'0 0.0
2014-Oct-30 06:32N 33°44' W 118°17'0 0.0
2014-Oct-30 05:33N 33°44' W 118°17'0 0.0
2014-Oct-30 04:31N 33°44' W 118°17'0 0.0
2014-Oct-30 03:25N 33°44' W 118°17'0 0.0
2014-Oct-30 02:33N 33°44' W 118°17'0 0.0
2014-Oct-30 01:27N 33°44' W 118°17'0 0.0
2014-Oct-29 23:09N 33°44' W 118°17'0 0.0
2014-Oct-29 22:04N 33°44' W 118°17'0 0.1
2014-Oct-29 21:27N 33°44' W 118°16'1 1.3
2014-Oct-29 20:33N 33°45' W 118°16'2 1.6
2014-Oct-29 19:33N 33°43' W 118°16'1 0.5
2014-Oct-29 18:30N 33°44' W 118°17'0 0.0
2014-Oct-29 17:32N 33°44' W 118°17'0 0.0
2014-Oct-29 16:33N 33°44' W 118°17'0 0.0
2014-Oct-29 15:33N 33°44' W 118°17'0 0.0
2014-Oct-29 14:33N 33°44' W 118°17'0 0.0
2014-Oct-29 13:32N 33°44' W 118°17'1 1.3
2014-Oct-29 12:33N 33°45' W 118°16'3 2.5
2014-Oct-29 11:33N 33°43' W 118°15'1 0.9
2014-Oct-29 10:33N 33°44' W 118°14'2 2.3
2014-Oct-29 09:33N 33°44' W 118°16'0 0.0
2014-Oct-29 08:21N 33°44' W 118°16'0 0.2
2014-Oct-29 07:07N 33°44' W 118°17'0 0.0
2014-Oct-29 06:23N 33°44' W 118°17'0 0.0
2014-Oct-29 01:30N 33°44' W 118°17'0 0.0
2014-Oct-28 22:30N 33°44' W 118°17'0 0.0
2014-Oct-28 21:04N 33°44' W 118°17'0 0.0
2014-Oct-28 08:05N 33°44' W 118°17'0 0.0
2014-Oct-28 03:08N 33°44' W 118°17'0 0.0
2014-Oct-28 01:23N 33°44' W 118°17'0 0.0
2014-Oct-28 00:25N 33°44' W 118°17'0 0.0
2014-Oct-27 23:23N 33°44' W 118°17'0 0.0
2014-Oct-27 22:30N 33°44' W 118°17'0 0.0
2014-Oct-27 21:26N 33°44' W 118°17'0 0.0
2014-Oct-27 20:32N 33°44' W 118°17'0 0.0
2014-Oct-27 19:33N 33°44' W 118°17'0 0.0
2014-Oct-27 18:33N 33°44' W 118°17'0 0.0
2014-Oct-27 17:33N 33°44' W 118°17'0 0.0
2014-Oct-27 16:34N 33°44' W 118°17'0 0.0
2014-Oct-27 15:32N 33°44' W 118°17'0 0.0
2014-Oct-27 13:21N 33°44' W 118°17'4 4.9
2014-Oct-27 12:33N 33°44' W 118°12'1 0.9
2014-Oct-27 11:33N 33°44' W 118°12'4 0.4
2014-Oct-27 01:30N 33°44' W 118°17'0 0.0
2014-Oct-27 00:33N 33°44' W 118°17'0 0.0
2014-Oct-26 22:04N 33°44' W 118°17'0 0.0
2014-Oct-26 21:31N 33°44' W 118°17'0 0.0
2014-Oct-26 20:32N 33°44' W 118°17'0 0.0
2014-Oct-26 19:15N 33°44' W 118°17'0 0.0
2014-Oct-26 17:28N 33°44' W 118°17'0 0.0
2014-Oct-26 03:15N 33°44' W 118°17'3 4.9
2014-Oct-26 02:34N 33°46' W 118°13'1 0.7
2014-Oct-26 01:33N 33°46' W 118°13'1 1.5
2014-Oct-26 00:33N 33°45' W 118°13'2 2.3
2014-Oct-25 23:33N 33°44' W 118°11'3 3.0
2014-Oct-25 22:33N 33°43' W 118°14'2 1.9
2014-Oct-25 21:33N 33°44' W 118°17'0 0.0
2014-Oct-25 20:33N 33°44' W 118°17'0 0.0
2014-Oct-25 19:30N 33°44' W 118°17'0 0.0
2014-Oct-25 17:33N 33°44' W 118°17'0 0.0
2014-Oct-25 16:13N 33°44' W 118°17'0 0.0
2014-Oct-25 15:29N 33°44' W 118°17'0 0.0
2014-Oct-25 14:33N 33°44' W 118°17'1 0.9
2014-Oct-25 13:34N 33°45' W 118°16'2 1.7
2014-Oct-25 12:33N 33°43' W 118°16'0 0.3
2014-Oct-25 11:33N 33°43' W 118°16'1 0.5
2014-Oct-25 10:09N 33°44' W 118°17'0 0.0
2014-Oct-25 09:33N 33°44' W 118°17'0 0.0
2014-Oct-25 08:33N 33°44' W 118°17'0 0.0
2014-Oct-25 07:33N 33°44' W 118°17'0 0.0
2014-Oct-25 06:33N 33°44' W 118°17'0 0.0
2014-Oct-25 05:33N 33°44' W 118°17'0 0.0
2014-Oct-25 04:33N 33°44' W 118°17'0 0.0
2014-Oct-25 03:13N 33°44' W 118°17'0 0.0
2014-Oct-25 02:33N 33°44' W 118°17'4 4.0
2014-Oct-25 01:33N 33°44' W 118°12'1 0.7
2014-Oct-25 00:34N 33°44' W 118°11'1 0.8
2014-Oct-24 23:34N 33°44' W 118°11'3 2.8
2014-Oct-24 22:33N 33°43' W 118°14'2 2.2
2014-Oct-24 21:33N 33°44' W 118°17'0 0.0
2014-Oct-24 20:15N 33°44' W 118°17'0 0.0
2014-Oct-24 19:34N 33°44' W 118°17'0 0.0
2014-Oct-24 18:13N 33°44' W 118°17'0 0.0
2014-Oct-24 17:20N 33°44' W 118°17'0 0.0
2014-Oct-24 14:32N 33°44' W 118°17'0 0.0
2014-Oct-24 13:34N 33°44' W 118°17'0 0.0
2014-Oct-24 12:33N 33°44' W 118°17'0 0.0
2014-Oct-24 11:28N 33°44' W 118°17'0 0.0
2014-Oct-24 09:33N 33°44' W 118°17'0 0.0
2014-Oct-24 08:32N 33°44' W 118°17'0 0.0
2014-Oct-24 07:33N 33°44' W 118°17'0 0.0
2014-Oct-24 06:33N 33°44' W 118°17'0 0.0
2014-Oct-24 05:33N 33°44' W 118°17'0 0.0
2014-Oct-24 04:33N 33°44' W 118°17'0 0.0
2014-Oct-24 03:33N 33°44' W 118°17'0 0.0
2014-Oct-24 00:32N 33°44' W 118°17'0 0.0
2014-Oct-23 23:33N 33°44' W 118°17'0 0.0
2014-Oct-23 22:33N 33°44' W 118°17'0 0.0
2014-Oct-23 21:33N 33°44' W 118°17'0 0.0
2014-Oct-23 20:33N 33°44' W 118°17'0 0.0
2014-Oct-23 19:33N 33°44' W 118°17'0 0.0
2014-Oct-23 18:24N 33°44' W 118°17'0 0.0
2014-Oct-23 17:33N 33°44' W 118°17'0 0.0
2014-Oct-23 16:30N 33°44' W 118°17'0 0.0
2014-Oct-23 15:29N 33°44' W 118°17'0 0.0
2014-Oct-23 14:19N 33°44' W 118°17'1 1.9
2014-Oct-23 13:33N 33°44' W 118°15'1 1.2
2014-Oct-23 12:34N 33°43' W 118°15'2 1.8
2014-Oct-23 11:33N 33°44' W 118°17'0 0.0
2014-Oct-23 10:33N 33°44' W 118°17'0 0.0
2014-Oct-23 08:26N 33°44' W 118°17'0 0.0
2014-Oct-23 07:21N 33°44' W 118°17'0 0.0
2014-Oct-23 06:30N 33°44' W 118°17'0 0.0
2014-Oct-23 05:33N 33°44' W 118°17'0 0.0
2014-Oct-23 04:33N 33°44' W 118°17'0 0.0
2014-Oct-23 03:33N 33°44' W 118°17'0 0.0
2014-Oct-23 02:33N 33°44' W 118°17'0 0.0
2014-Oct-23 01:33N 33°44' W 118°17'0 0.0
2014-Oct-23 00:33N 33°44' W 118°17'0 0.0
2014-Oct-22 23:34N 33°44' W 118°17'0 0.0
2014-Oct-22 22:33N 33°44' W 118°17'0 0.0
2014-Oct-22 20:33N 33°44' W 118°17'0 0.0
2014-Oct-22 19:33N 33°44' W 118°17'0 0.0
2014-Oct-22 18:26N 33°44' W 118°17'0 0.0
2014-Oct-22 16:16N 33°44' W 118°17'0 0.0
2014-Oct-22 13:08N 33°44' W 118°17'3 4.7
2014-Oct-22 12:33N 33°46' W 118°15'1 1.5
2014-Oct-22 11:34N 33°45' W 118°13'0 0.3
2014-Oct-22 10:33N 33°45' W 118°13'1 1.0
2014-Oct-22 09:34N 33°44' W 118°14'2 2.3
2014-Oct-22 08:33N 33°44' W 118°16'0 0.3
2014-Oct-22 07:29N 33°44' W 118°16'0 0.0
2014-Oct-22 02:27N 33°44' W 118°17'3 3.2
2014-Oct-22 01:33N 33°44' W 118°13'1 0.7
2014-Oct-22 00:33N 33°44' W 118°12'3 3.5
2014-Oct-21 23:33N 33°44' W 118°17'0 0.0
2014-Oct-21 22:32N 33°44' W 118°17'0 0.0
2014-Oct-21 21:33N 33°44' W 118°17'0 0.0
2014-Oct-21 20:33N 33°44' W 118°17'0 0.0
2014-Oct-21 19:34N 33°44' W 118°17'0 0.0
2014-Oct-21 18:33N 33°44' W 118°17'0 0.0
2014-Oct-21 17:30N 33°44' W 118°17'0 0.0
2014-Oct-21 16:32N 33°44' W 118°17'0 0.1
2014-Oct-21 15:32N 33°44' W 118°17'0 0.0
2014-Oct-21 14:33N 33°44' W 118°17'0 0.0
2014-Oct-21 13:33N 33°44' W 118°17'0 0.0
2014-Oct-21 12:34N 33°44' W 118°17'1 0.7
2014-Oct-21 11:26N 33°43' W 118°16'1 1.3
2014-Oct-21 10:31N 33°44' W 118°15'1 0.6
2014-Oct-21 08:24N 33°44' W 118°17'1 0.1
2014-Oct-21 01:33N 33°45' W 118°16'1 0.6
2014-Oct-20 23:23N 33°44' W 118°16'  

Dump ship's entire track history